createdAt,value
2023-02-15T03:59:21.830Z,20.19
2023-02-15T04:00:21.816Z,20.20
2023-02-15T04:01:21.778Z,20.22
2023-02-15T04:02:21.689Z,20.20
2023-02-15T04:03:21.730Z,20.15
2023-02-15T04:04:22.284Z,20.07
2023-02-15T04:05:21.665Z,20.19
2023-02-15T04:06:21.656Z,20.19
2023-02-15T04:07:21.643Z,20.15
2023-02-15T04:08:21.642Z,20.18
2023-02-15T04:09:21.657Z,20.18
2023-02-15T04:10:21.644Z,20.18
2023-02-15T04:11:21.620Z,20.20
2023-02-15T04:12:21.636Z,20.12
2023-02-15T04:13:21.634Z,20.27
2023-02-15T04:14:21.615Z,20.29
2023-02-15T04:15:21.619Z,20.27
2023-02-15T04:16:21.649Z,20.27
2023-02-15T04:17:21.589Z,20.27
2023-02-15T04:18:21.591Z,20.27
2023-02-15T04:19:21.602Z,20.29
2023-02-15T04:20:21.597Z,20.37
2023-02-15T04:21:21.567Z,20.26
2023-02-15T04:22:21.566Z,20.34
2023-02-15T04:23:21.568Z,20.38
2023-02-15T04:24:21.547Z,20.34
2023-02-15T04:25:22.461Z,20.42
2023-02-15T04:26:21.558Z,20.37
2023-02-15T04:27:21.544Z,20.37
2023-02-15T04:28:21.541Z,20.40
2023-02-15T04:29:21.530Z,20.42
2023-02-15T04:30:21.582Z,20.42
2023-02-15T04:31:21.617Z,20.51
2023-02-15T04:32:21.557Z,20.46
2023-02-15T04:33:21.670Z,20.54
2023-02-15T04:34:21.518Z,20.49
2023-02-15T04:35:21.509Z,20.58
2023-02-15T04:36:21.494Z,20.58
2023-02-15T04:37:21.500Z,20.57
2023-02-15T04:38:21.490Z,20.60
2023-02-15T04:39:21.483Z,20.58
2023-02-15T04:40:21.501Z,20.60
2023-02-15T04:41:21.480Z,20.63
2023-02-15T04:42:21.467Z,20.58
2023-02-15T04:43:21.467Z,20.57
2023-02-15T04:44:21.459Z,20.56
2023-02-15T04:45:21.466Z,20.60
2023-02-15T04:46:21.512Z,20.61
2023-02-15T04:47:21.469Z,20.61
2023-02-15T04:48:21.466Z,20.64
2023-02-15T04:49:21.483Z,20.67
2023-02-15T04:50:21.478Z,20.60
2023-02-15T04:51:21.440Z,20.64
2023-02-15T04:52:21.431Z,20.71
2023-02-15T04:53:21.418Z,20.68
2023-02-15T04:54:21.422Z,20.64
2023-02-15T04:55:21.436Z,20.74
2023-02-15T04:56:21.415Z,20.72
2023-02-15T04:57:21.405Z,20.67
2023-02-15T04:58:21.428Z,20.72
2023-02-15T04:59:21.406Z,20.76
2023-02-15T05:00:21.404Z,20.72
2023-02-15T05:01:21.419Z,20.78
2023-02-15T05:02:21.394Z,20.75
2023-02-15T05:03:21.409Z,20.68
2023-02-15T05:04:21.425Z,20.71
2023-02-15T05:05:21.392Z,20.76
2023-02-15T05:06:21.381Z,20.81
2023-02-15T05:07:21.495Z,20.81
2023-02-15T05:08:21.386Z,20.74
2023-02-15T05:09:21.362Z,20.81
2023-02-15T05:10:21.370Z,20.81
2023-02-15T05:11:21.346Z,20.79
2023-02-15T05:12:21.340Z,20.76
2023-02-15T05:13:21.350Z,20.81
2023-02-15T05:14:21.348Z,20.75
2023-02-15T05:15:21.340Z,20.81
2023-02-15T05:16:21.413Z,20.81
2023-02-15T05:17:21.325Z,20.85
2023-02-15T05:18:21.311Z,20.76
2023-02-15T05:19:21.326Z,20.79
2023-02-15T05:20:21.323Z,20.78
2023-02-15T05:21:21.321Z,20.83
2023-02-15T05:22:21.314Z,20.90
2023-02-15T05:23:21.301Z,20.79
2023-02-15T05:24:21.293Z,20.85
2023-02-15T05:25:21.300Z,20.85
2023-02-15T05:26:21.310Z,20.79
2023-02-15T05:27:21.303Z,20.88
2023-02-15T05:28:21.280Z,20.82
2023-02-15T05:29:21.280Z,20.83
2023-02-15T05:30:21.407Z,20.88
2023-02-15T05:31:21.526Z,20.81
2023-02-15T05:32:21.448Z,20.81
2023-02-15T05:33:21.271Z,20.83
2023-02-15T05:34:21.259Z,20.79
2023-02-15T05:35:21.272Z,20.90
2023-02-15T05:36:21.250Z,20.82
2023-02-15T05:37:21.245Z,20.79
2023-02-15T05:38:21.278Z,20.85
2023-02-15T05:39:21.247Z,20.79
2023-02-15T05:40:21.227Z,20.85
2023-02-15T05:41:21.224Z,20.76
2023-02-15T05:42:21.219Z,20.88
2023-02-15T05:43:21.226Z,20.83
2023-02-15T05:44:21.221Z,20.86
2023-02-15T05:45:21.211Z,20.83
2023-02-15T05:46:21.265Z,20.86
2023-02-15T05:47:21.202Z,20.78
2023-02-15T05:48:21.202Z,20.82
2023-02-15T05:49:21.185Z,20.82
2023-02-15T05:50:21.195Z,20.82
2023-02-15T05:51:21.209Z,20.81
2023-02-15T05:52:21.177Z,20.90
2023-02-15T05:53:21.184Z,20.82
2023-02-15T05:54:21.186Z,20.88
2023-02-15T05:55:21.171Z,20.76
2023-02-15T05:56:21.207Z,20.83
2023-02-15T05:57:21.171Z,20.85
2023-02-15T05:58:21.169Z,20.81
2023-02-15T05:59:21.150Z,20.83
2023-02-15T06:00:21.147Z,20.81
2023-02-15T06:01:21.153Z,20.81
2023-02-15T06:02:21.204Z,20.81
2023-02-15T06:03:21.162Z,20.79
2023-02-15T06:04:21.143Z,20.88
2023-02-15T06:05:21.129Z,20.78
2023-02-15T06:06:21.119Z,20.90
2023-02-15T06:07:21.228Z,20.90
2023-02-15T06:08:21.114Z,20.81
2023-02-15T06:09:21.119Z,20.81
2023-02-15T06:10:21.123Z,20.91
2023-02-15T06:11:21.104Z,20.79
2023-02-15T06:12:21.098Z,20.82
2023-02-15T06:13:21.120Z,20.82
2023-02-15T06:14:21.084Z,20.81
2023-02-15T06:15:21.081Z,20.81
2023-02-15T06:16:21.185Z,20.85
2023-02-15T06:17:21.087Z,20.81
2023-02-15T06:18:21.084Z,20.79
2023-02-15T06:19:21.065Z,20.81
2023-02-15T06:20:21.059Z,20.79
2023-02-15T06:21:21.056Z,20.82
2023-02-15T06:22:21.073Z,20.81
2023-02-15T06:23:21.070Z,20.93
2023-02-15T06:24:21.059Z,20.93
2023-02-15T06:25:21.037Z,20.81
2023-02-15T06:26:21.045Z,20.93
2023-02-15T06:27:21.061Z,20.88
2023-02-15T06:28:21.027Z,20.78
2023-02-15T06:29:21.033Z,20.81
2023-02-15T06:30:21.101Z,20.83
2023-02-15T06:31:21.192Z,20.86
2023-02-15T06:32:21.038Z,20.83
2023-02-15T06:33:21.045Z,20.79
2023-02-15T06:34:21.003Z,20.79
2023-02-15T06:35:21.001Z,20.81
2023-02-15T06:36:21.009Z,20.88
2023-02-15T06:37:20.992Z,20.79
2023-02-15T06:38:21.032Z,20.81
2023-02-15T06:39:21.065Z,20.81
2023-02-15T06:41:54.384Z,20.88
2023-02-15T06:42:54.348Z,20.82
2023-02-15T06:43:54.390Z,20.81
2023-02-15T06:44:54.337Z,20.82
2023-02-15T06:45:54.370Z,20.85
2023-02-15T06:46:54.430Z,20.81
2023-02-15T06:47:54.342Z,20.93
2023-02-15T06:48:54.373Z,20.81
2023-02-15T06:49:54.418Z,20.91
2023-02-15T06:50:54.329Z,20.90
2023-02-15T06:51:54.323Z,20.94
2023-02-15T06:52:54.333Z,20.82
2023-02-15T06:53:54.314Z,20.90
2023-02-15T06:54:54.321Z,20.91
2023-02-15T06:55:54.370Z,20.91
2023-02-15T06:56:54.295Z,20.90
2023-02-15T06:57:54.288Z,20.88
2023-02-15T06:58:54.314Z,20.93
2023-02-15T06:59:54.287Z,20.90
2023-02-15T07:00:54.283Z,20.97
2023-02-15T07:01:54.416Z,20.94
2023-02-15T07:02:55.732Z,20.96
2023-02-15T07:03:54.340Z,20.93
2023-02-15T07:04:54.374Z,20.93
2023-02-15T07:05:54.243Z,20.90
2023-02-15T07:06:54.332Z,20.93
2023-02-15T07:07:54.236Z,20.91
2023-02-15T07:10:54.243Z,20.98
2023-02-15T07:12:54.219Z,20.97
2023-02-15T07:13:54.262Z,20.91
2023-02-15T07:14:54.212Z,20.85
2023-02-15T07:15:54.241Z,20.94
2023-02-15T07:16:54.193Z,20.97
2023-02-15T07:17:54.190Z,20.85
2023-02-15T07:18:54.209Z,20.90
2023-02-15T07:19:54.191Z,20.90
2023-02-15T07:20:54.174Z,20.88
2023-02-15T07:21:54.170Z,21.00
2023-02-15T07:22:54.204Z,20.85
2023-02-15T07:23:54.178Z,20.96
2023-02-15T07:24:54.157Z,20.91
2023-02-15T07:25:54.149Z,20.85
2023-02-15T07:26:54.187Z,20.94
2023-02-15T07:27:54.141Z,20.98
2023-02-15T07:28:54.183Z,20.93
2023-02-15T07:29:54.155Z,21.06
2023-02-15T07:30:54.171Z,21.01
2023-02-15T07:31:54.252Z,21.01
2023-02-15T07:32:54.138Z,20.96
2023-02-15T07:33:54.144Z,21.01
2023-02-15T07:34:54.141Z,20.97
2023-02-15T07:35:54.119Z,20.96
2023-02-15T07:36:54.106Z,21.03
2023-02-15T07:37:54.105Z,20.94
2023-02-15T07:38:54.107Z,20.97
2023-02-15T07:39:54.107Z,20.94
2023-02-15T07:40:54.096Z,20.94
2023-02-15T07:41:54.092Z,20.97
2023-02-15T07:42:54.341Z,20.97
2023-02-15T07:43:54.096Z,21.03
2023-02-15T07:44:54.072Z,21.01
2023-02-15T07:45:54.067Z,21.01
2023-02-15T07:46:54.129Z,21.08
2023-02-15T07:47:54.081Z,21.03
2023-02-15T07:48:54.072Z,20.98
2023-02-15T07:49:54.077Z,21.01
2023-02-15T07:50:54.071Z,21.00
2023-02-15T07:51:54.065Z,21.00
2023-02-15T07:52:54.052Z,21.01
2023-02-15T07:53:54.044Z,21.01
2023-02-15T07:54:54.030Z,21.04
2023-02-15T07:55:54.032Z,21.11
2023-02-15T07:56:54.050Z,21.06
2023-02-15T07:57:54.032Z,21.08
2023-02-15T07:59:54.061Z,21.06
2023-02-15T08:00:54.018Z,21.04
2023-02-15T08:01:54.019Z,21.04
2023-02-15T08:02:54.073Z,21.12
2023-02-15T08:03:54.059Z,21.09
2023-02-15T08:04:54.012Z,21.19
2023-02-15T08:05:53.985Z,21.25
2023-02-15T08:06:54.015Z,21.21
2023-02-15T08:07:54.006Z,21.21
2023-02-15T08:08:54.050Z,21.22
2023-02-15T08:09:53.969Z,21.28
2023-02-15T08:10:53.969Z,21.23
2023-02-15T08:11:53.973Z,21.33
2023-02-15T08:12:53.961Z,21.38
2023-02-15T08:13:53.992Z,21.38
2023-02-15T08:14:53.962Z,21.37
2023-02-15T08:15:53.998Z,21.45
2023-02-15T08:16:54.154Z,21.41
2023-02-15T08:17:53.959Z,21.48
2023-02-15T08:18:53.951Z,21.49
2023-02-15T08:19:53.961Z,21.45
2023-02-15T08:20:53.950Z,21.55
2023-02-15T08:21:53.974Z,21.48
2023-02-15T08:22:53.982Z,21.61
2023-02-15T08:23:53.924Z,21.66
2023-02-15T08:24:53.989Z,21.67
2023-02-15T08:25:54.698Z,21.61
2023-02-15T08:26:54.886Z,21.70
2023-02-15T08:27:53.929Z,21.71
2023-02-15T08:28:53.953Z,21.77
2023-02-15T08:29:56.758Z,21.78
2023-02-15T08:30:54.901Z,21.83
2023-02-15T08:31:54.152Z,21.80
2023-02-15T08:34:26.529Z,21.97
2023-02-15T08:35:26.619Z,21.92
2023-02-15T08:37:59.661Z,21.97
2023-02-15T08:40:32.221Z,22.12
2023-02-15T08:41:32.242Z,22.08
2023-02-15T08:42:32.196Z,22.08
2023-02-15T08:43:32.200Z,22.12
2023-02-15T08:44:32.244Z,22.26
2023-02-15T08:45:32.269Z,22.16
2023-02-15T08:46:32.200Z,22.20
2023-02-15T08:48:32.164Z,22.18
2023-02-15T08:49:32.268Z,22.26
2023-02-15T08:50:32.226Z,22.29
2023-02-15T08:51:32.302Z,22.30
2023-02-15T08:52:32.197Z,22.33
2023-02-15T08:53:32.393Z,22.38
2023-02-15T08:54:32.152Z,22.33
2023-02-15T08:55:32.163Z,22.39
2023-02-15T08:56:32.181Z,22.41
2023-02-15T08:57:32.210Z,22.44
2023-02-15T08:58:32.128Z,22.51
2023-02-15T08:59:32.280Z,22.49
2023-02-15T09:00:32.359Z,22.42
2023-02-15T09:01:32.827Z,22.60
2023-02-15T09:02:32.212Z,22.59
2023-02-15T09:03:32.144Z,22.66
2023-02-15T09:04:32.150Z,22.63
2023-02-15T09:05:32.149Z,22.61
2023-02-15T09:06:32.143Z,22.76
2023-02-15T09:07:32.136Z,22.71
2023-02-15T09:08:32.102Z,22.75
2023-02-15T09:09:32.104Z,22.75
2023-02-15T09:10:32.123Z,22.75
2023-02-15T09:11:32.095Z,22.88
2023-02-15T09:12:32.105Z,22.82
2023-02-15T09:13:32.091Z,22.86
2023-02-15T09:14:32.138Z,22.89
2023-02-15T09:15:32.097Z,22.89
2023-02-15T09:16:32.271Z,22.92
2023-02-15T09:17:32.098Z,22.92
2023-02-15T09:18:32.075Z,22.89
2023-02-15T09:19:32.113Z,22.94
2023-02-15T09:20:32.081Z,23.00
2023-02-15T09:21:32.089Z,22.99
2023-02-15T09:22:32.070Z,23.01
2023-02-15T09:23:32.079Z,23.03
2023-02-15T09:24:32.089Z,22.99
2023-02-15T09:25:32.110Z,23.01
2023-02-15T09:26:32.076Z,23.03
2023-02-15T09:27:32.062Z,23.07
2023-02-15T09:28:32.063Z,23.04
2023-02-15T09:30:32.217Z,23.14
2023-02-15T09:31:32.259Z,23.21
2023-02-15T09:32:32.038Z,23.18
2023-02-15T09:33:32.039Z,23.28
2023-02-15T09:34:34.114Z,23.25
2023-02-15T09:35:32.052Z,23.24
2023-02-15T09:36:32.043Z,23.22
2023-02-15T09:37:32.065Z,23.35
2023-02-15T09:38:32.042Z,23.28
2023-02-15T09:39:32.049Z,23.35
2023-02-15T09:42:32.022Z,23.42
2023-02-15T09:43:32.017Z,23.44
2023-02-15T09:44:32.031Z,23.41
2023-02-15T09:45:32.016Z,23.45
2023-02-15T09:46:32.048Z,23.48
2023-02-15T09:47:32.816Z,23.55
2023-02-15T09:48:32.025Z,23.50
2023-02-15T09:49:32.032Z,23.60
2023-02-15T09:50:32.025Z,23.57
2023-02-15T09:51:32.045Z,23.67
2023-02-15T09:53:32.024Z,23.67
2023-02-15T09:54:32.030Z,23.67
2023-02-15T09:55:32.016Z,23.75
2023-02-15T09:56:32.020Z,23.66
2023-02-15T09:57:32.001Z,23.72
2023-02-15T09:58:32.015Z,23.85
2023-02-15T09:59:32.173Z,23.84
2023-02-15T10:00:32.211Z,23.84
2023-02-15T10:01:32.083Z,23.93
2023-02-15T10:02:31.989Z,23.90
2023-02-15T10:13:39.718Z,24.09
2023-02-15T10:14:39.671Z,24.11
2023-02-15T10:15:39.651Z,24.07
2023-02-15T10:16:39.697Z,24.14
2023-02-15T10:17:39.650Z,24.14
2023-02-15T10:18:39.631Z,24.22
2023-02-15T10:19:39.640Z,24.18
2023-02-15T10:20:39.682Z,24.14
2023-02-15T10:21:39.677Z,24.29
2023-02-15T10:22:39.630Z,24.24
2023-02-15T10:23:39.651Z,24.22
2023-02-15T10:24:41.593Z,24.30
2023-02-15T10:25:39.892Z,24.29
2023-02-15T10:26:39.727Z,24.29
2023-02-15T10:27:39.803Z,24.39
2023-02-15T10:28:39.640Z,24.46
2023-02-15T10:29:39.765Z,24.37
2023-02-15T10:30:39.877Z,24.51
2023-02-15T10:31:40.875Z,24.54
2023-02-15T10:32:39.933Z,24.56
2023-02-15T10:33:39.621Z,24.45
2023-02-15T10:34:39.645Z,24.61
2023-02-15T10:35:39.643Z,24.59
2023-02-15T10:36:40.480Z,24.63
2023-02-15T10:37:40.524Z,24.67
2023-02-15T10:38:39.639Z,24.69
2023-02-15T10:39:39.642Z,24.82
2023-02-15T10:40:39.701Z,24.77
2023-02-15T10:41:40.766Z,24.75
2023-02-15T10:42:39.607Z,24.87
2023-02-15T10:43:41.788Z,24.92
2023-02-15T10:44:39.735Z,24.93
2023-02-15T10:45:39.763Z,24.96
2023-02-15T10:46:39.755Z,25.02
2023-02-15T10:47:39.609Z,25.04
2023-02-15T10:48:39.608Z,25.04
2023-02-15T10:49:39.608Z,25.07
2023-02-15T10:50:39.621Z,25.07
2023-02-15T10:51:39.629Z,25.15
2023-02-15T10:52:39.622Z,25.14
2023-02-15T10:55:39.613Z,25.32
2023-02-15T10:57:39.605Z,25.33
2023-02-15T10:58:39.626Z,25.34
2023-02-15T11:00:39.647Z,25.42
2023-02-15T11:01:39.785Z,25.42
2023-02-15T11:02:39.612Z,25.45
2023-02-15T11:03:39.612Z,25.56
2023-02-15T11:04:39.697Z,25.48
2023-02-15T11:05:39.706Z,25.56
2023-02-15T11:06:39.609Z,25.60
2023-02-15T11:07:39.629Z,25.57
2023-02-15T11:08:40.918Z,25.64
2023-02-15T11:09:39.622Z,25.67
2023-02-15T11:10:39.624Z,25.71
2023-02-15T11:11:39.616Z,25.67
2023-02-15T11:12:39.617Z,25.74
2023-02-15T11:13:39.618Z,25.71
2023-02-15T11:14:39.616Z,25.76
2023-02-15T11:15:39.645Z,25.79
2023-02-15T11:16:39.631Z,25.84
2023-02-15T11:17:39.636Z,25.79
2023-02-15T11:18:39.622Z,25.84
2023-02-15T11:19:39.623Z,25.85
2023-02-15T11:20:39.648Z,25.84
2023-02-15T11:23:39.630Z,25.96
2023-02-15T11:24:39.622Z,25.93
2023-02-15T11:25:39.687Z,25.89
2023-02-15T11:26:39.643Z,25.99
2023-02-15T11:27:39.688Z,26.03
2023-02-15T11:28:39.629Z,26.04
2023-02-15T11:29:39.636Z,25.97
2023-02-15T11:30:39.707Z,25.99
2023-02-15T11:31:39.855Z,26.07
2023-02-15T11:32:39.648Z,26.04
2023-02-15T11:33:39.643Z,26.06
2023-02-15T11:34:39.659Z,26.09
2023-02-15T11:35:39.631Z,26.11
2023-02-15T11:36:39.630Z,26.16
2023-02-15T11:37:39.643Z,26.15
2023-02-15T11:38:39.627Z,26.06
2023-02-15T11:39:39.631Z,26.17
2023-02-15T11:40:39.629Z,26.15
2023-02-15T11:41:39.652Z,26.17
2023-02-15T11:42:39.640Z,26.15
2023-02-15T11:43:39.652Z,26.16
2023-02-15T11:44:39.663Z,26.12
2023-02-15T11:45:39.661Z,26.15
2023-02-15T11:46:39.718Z,26.24
2023-02-15T11:47:39.676Z,26.22
2023-02-15T11:48:39.672Z,26.23
2023-02-15T11:49:39.671Z,26.22
2023-02-15T11:50:39.641Z,26.22
2023-02-15T11:51:39.659Z,26.24
2023-02-15T11:52:39.662Z,26.34
2023-02-15T11:54:39.648Z,26.38
2023-02-15T11:55:39.656Z,26.41
2023-02-15T11:56:39.657Z,26.47
2023-02-15T11:57:39.764Z,26.47
2023-02-15T11:58:39.658Z,26.47
2023-02-15T11:59:39.647Z,26.54
2023-02-15T12:00:39.673Z,26.52
2023-02-15T12:01:39.659Z,26.60
2023-02-15T12:02:39.807Z,26.59
2023-02-15T12:03:39.690Z,26.59
2023-02-15T12:04:39.672Z,26.68
2023-02-15T12:05:39.664Z,26.69
2023-02-15T12:06:39.657Z,26.74
2023-02-15T12:07:39.666Z,26.71
2023-02-15T12:08:39.828Z,26.78
2023-02-15T12:09:39.673Z,26.79
2023-02-15T12:10:39.668Z,26.91
2023-02-15T12:11:39.658Z,26.84
2023-02-15T12:12:39.668Z,26.81
2023-02-15T12:13:39.669Z,26.84
2023-02-15T12:14:39.707Z,26.89
2023-02-15T12:15:39.709Z,26.94
2023-02-15T12:16:39.665Z,27.00
2023-02-15T12:17:39.667Z,27.00
2023-02-15T12:18:39.726Z,27.13
2023-02-15T12:19:39.683Z,27.15
2023-02-15T12:20:39.701Z,27.27
2023-02-15T12:21:39.693Z,27.31
2023-02-15T12:22:39.689Z,27.45
2023-02-15T12:23:39.860Z,27.53
2023-02-15T12:24:39.690Z,27.46
2023-02-15T12:28:12.777Z,27.89
2023-02-15T12:29:12.735Z,27.94
2023-02-15T12:30:12.750Z,28.01
2023-02-15T12:31:12.781Z,28.06
2023-02-15T12:32:12.808Z,28.24
2023-02-15T12:33:12.748Z,28.24
2023-02-15T12:34:13.555Z,28.27
2023-02-15T12:35:12.748Z,28.36
2023-02-15T12:36:12.749Z,28.42
2023-02-15T12:37:12.808Z,28.45
2023-02-15T12:38:12.782Z,28.49
2023-02-15T12:39:12.795Z,28.55
2023-02-15T12:40:12.767Z,28.55
2023-02-15T12:41:12.763Z,28.65
2023-02-15T12:42:12.755Z,28.53
2023-02-15T12:43:12.760Z,28.61
2023-02-15T12:44:14.809Z,28.54
2023-02-15T12:45:19.418Z,28.63
2023-02-15T12:46:12.787Z,28.61
2023-02-15T12:47:12.787Z,28.72
2023-02-15T12:48:12.817Z,28.65
2023-02-15T12:49:12.797Z,28.70
2023-02-15T12:50:12.770Z,28.85
2023-02-15T12:51:12.779Z,28.83
2023-02-15T12:52:12.787Z,28.92
2023-02-15T12:53:12.821Z,29.06
2023-02-15T12:54:12.801Z,29.10
2023-02-15T12:55:12.792Z,29.21
2023-02-15T12:56:12.816Z,29.28
2023-02-15T12:57:12.791Z,29.29
2023-02-15T12:58:12.790Z,29.39
2023-02-15T12:59:12.805Z,29.42
2023-02-15T13:00:12.804Z,29.58
2023-02-15T13:01:12.927Z,29.63
2023-02-15T13:02:12.900Z,29.61
2023-02-15T13:03:12.806Z,29.57
2023-02-15T13:04:12.844Z,29.66
2023-02-15T13:05:12.818Z,29.63
2023-02-15T13:06:12.880Z,29.70
2023-02-15T13:07:12.820Z,29.70
2023-02-15T13:08:12.829Z,29.75
2023-02-15T13:09:12.901Z,29.69
2023-02-15T13:10:12.868Z,29.61
2023-02-15T13:11:12.892Z,29.72
2023-02-15T13:12:12.851Z,29.73
2023-02-15T13:13:12.845Z,29.70
2023-02-15T13:14:12.872Z,29.81
2023-02-15T13:15:12.866Z,29.82
2023-02-15T13:16:12.980Z,29.79
2023-02-15T13:17:12.872Z,29.91
2023-02-15T13:18:12.861Z,29.91
2023-02-15T13:19:12.903Z,29.88
2023-02-15T13:20:12.875Z,29.87
2023-02-15T13:21:12.864Z,29.98
2023-02-15T13:22:12.861Z,30.06
2023-02-15T13:23:12.866Z,30.14
2023-02-15T13:24:12.988Z,30.19
2023-02-15T13:25:12.900Z,30.21
2023-02-15T13:26:12.879Z,30.28
2023-02-15T13:27:15.829Z,30.24
2023-02-15T13:28:12.908Z,30.22
2023-02-15T13:29:13.572Z,30.32
2023-02-15T13:30:12.987Z,30.32
2023-02-15T13:31:13.017Z,30.37
2023-02-15T13:32:13.009Z,30.37
2023-02-15T13:33:12.890Z,30.39
2023-02-15T13:34:12.899Z,30.45
2023-02-15T13:35:12.907Z,30.54
2023-02-15T13:36:12.948Z,30.54
2023-02-15T13:37:12.909Z,30.45
2023-02-15T13:38:12.916Z,30.49
2023-02-15T13:39:12.913Z,30.48
2023-02-15T13:40:13.004Z,30.56
2023-02-15T13:41:12.929Z,30.57
2023-02-15T13:42:12.946Z,30.63
2023-02-15T13:43:12.941Z,30.63
2023-02-15T13:44:12.960Z,30.64
2023-02-15T13:45:12.963Z,30.75
2023-02-15T13:46:12.991Z,30.79
2023-02-15T13:47:12.979Z,30.82
2023-02-15T13:48:12.946Z,30.93
2023-02-15T13:49:12.943Z,30.86
2023-02-15T13:50:12.962Z,30.91
2023-02-15T13:51:12.949Z,30.89
2023-02-15T13:52:12.964Z,30.89
2023-02-15T13:53:12.975Z,31.04
2023-02-15T13:54:13.022Z,31.01
2023-02-15T13:55:12.970Z,31.07
2023-02-15T13:56:12.972Z,31.10
2023-02-15T13:57:13.047Z,31.16
2023-02-15T13:58:12.989Z,31.19
2023-02-15T13:59:13.012Z,31.19
2023-02-15T14:00:13.011Z,31.21
2023-02-15T14:01:13.160Z,31.23
2023-02-15T14:02:12.995Z,31.23
2023-02-15T14:03:12.994Z,31.31
2023-02-15T14:04:13.058Z,31.28
2023-02-15T14:05:13.049Z,31.38
2023-02-15T14:06:13.003Z,31.34
2023-02-15T14:07:13.016Z,31.37
2023-02-15T14:08:13.027Z,31.36
2023-02-15T14:09:13.019Z,31.45
2023-02-15T14:10:13.031Z,31.41
2023-02-15T14:11:13.039Z,31.41
2023-02-15T14:12:13.029Z,31.53
2023-02-15T14:13:13.060Z,31.53
2023-02-15T14:14:13.067Z,31.53
2023-02-15T14:15:13.065Z,31.49
2023-02-15T14:16:13.085Z,31.49
2023-02-15T14:17:13.062Z,31.43
2023-02-15T14:18:13.063Z,31.45
2023-02-15T14:19:13.048Z,31.45
2023-02-15T14:20:13.046Z,31.47
2023-02-15T14:21:13.054Z,31.36
2023-02-15T14:22:13.602Z,31.36
2023-02-15T14:23:13.061Z,31.28
2023-02-15T14:24:13.061Z,31.31
2023-02-15T14:25:13.063Z,31.28
2023-02-15T14:26:13.099Z,31.30
2023-02-15T14:27:13.073Z,31.28
2023-02-15T14:28:13.074Z,31.30
2023-02-15T14:29:13.095Z,31.28
2023-02-15T14:30:13.194Z,31.21
2023-02-15T14:31:13.219Z,31.13
2023-02-15T14:32:13.273Z,31.13
2023-02-15T14:33:13.110Z,31.12
2023-02-15T14:34:13.119Z,31.12
2023-02-15T14:35:13.097Z,31.04
2023-02-15T14:36:13.099Z,31.06
2023-02-15T14:37:13.121Z,31.03
2023-02-15T14:38:13.117Z,31.03
2023-02-15T14:39:13.109Z,30.93
2023-02-15T14:40:13.120Z,30.96
2023-02-15T14:41:13.122Z,30.77
2023-02-15T14:42:13.177Z,30.77
2023-02-15T14:43:13.120Z,30.64
2023-02-15T14:44:13.147Z,30.56
2023-02-15T14:45:13.147Z,30.40
2023-02-15T14:46:13.220Z,30.37
2023-02-15T14:47:13.187Z,30.21
2023-02-15T14:48:13.172Z,30.14
2023-02-15T14:49:13.166Z,30.02
2023-02-15T14:50:13.173Z,30.00
2023-02-15T14:51:13.155Z,29.87
2023-02-15T14:52:13.161Z,29.73
2023-02-15T14:53:13.192Z,29.63
2023-02-15T14:54:13.164Z,29.55
2023-02-15T14:55:13.177Z,29.40
2023-02-15T14:56:13.169Z,29.33
2023-02-15T14:57:13.220Z,29.15
2023-02-15T14:58:13.201Z,29.01
2023-02-15T14:59:13.174Z,28.91
2023-02-15T15:00:13.184Z,28.83
2023-02-15T15:01:13.247Z,28.55
2023-02-15T15:02:13.193Z,28.57
2023-02-15T15:03:13.197Z,28.38
2023-02-15T15:04:13.211Z,28.36
2023-02-15T15:05:13.190Z,28.11
2023-02-15T15:06:13.221Z,28.01
2023-02-15T15:07:13.190Z,27.93
2023-02-15T15:08:13.207Z,27.80
2023-02-15T15:09:13.224Z,27.65
2023-02-15T15:10:13.218Z,27.62
2023-02-15T15:11:13.209Z,27.46
2023-02-15T15:12:13.218Z,27.46
2023-02-15T15:13:13.202Z,27.33
2023-02-15T15:14:13.229Z,27.21
2023-02-15T15:15:13.209Z,27.01
2023-02-15T15:16:13.275Z,26.99
2023-02-15T15:17:13.216Z,26.89
2023-02-15T15:18:13.214Z,26.72
2023-02-15T15:19:13.210Z,26.63
2023-02-15T15:20:13.247Z,26.60
2023-02-15T15:21:13.220Z,26.41
2023-02-15T15:22:13.224Z,26.37
2023-02-15T15:23:13.214Z,26.37
2023-02-15T15:25:13.230Z,26.19
2023-02-15T15:26:13.204Z,26.01
2023-02-15T15:27:13.214Z,25.93
2023-02-15T15:28:13.217Z,25.84
2023-02-15T15:29:13.234Z,25.74
2023-02-15T15:30:13.264Z,25.71
2023-02-15T15:31:13.341Z,25.51
2023-02-15T15:32:13.476Z,25.44
2023-02-15T15:33:13.269Z,25.48
2023-02-15T15:34:13.220Z,25.32
2023-02-15T15:35:13.200Z,25.32
2023-02-15T15:36:13.209Z,25.26
2023-02-15T15:37:13.213Z,25.11
2023-02-15T15:38:13.329Z,25.11
2023-02-15T15:39:13.217Z,25.05
2023-02-15T15:40:13.209Z,24.96
2023-02-15T15:41:13.221Z,24.96
2023-02-15T15:42:13.215Z,24.86
2023-02-15T15:43:13.281Z,24.80
2023-02-15T15:44:13.198Z,24.71
2023-02-15T15:45:13.188Z,24.71
2023-02-15T15:46:13.256Z,24.58
2023-02-15T15:47:13.188Z,24.55
2023-02-15T15:48:13.190Z,24.51
2023-02-15T15:49:13.237Z,24.44
2023-02-15T15:50:13.199Z,24.32
2023-02-15T15:51:13.207Z,24.30
2023-02-15T15:52:13.208Z,24.26
2023-02-15T15:53:13.176Z,24.14
2023-02-15T15:54:13.307Z,24.17
2023-02-15T15:56:46.236Z,24.09
2023-02-15T15:57:46.235Z,23.96
2023-02-15T15:58:46.244Z,24.00
2023-02-15T15:59:46.230Z,23.90
2023-02-15T16:00:46.248Z,23.82
2023-02-15T16:12:49.951Z,23.25
2023-02-15T16:13:49.884Z,23.19
2023-02-15T16:14:49.877Z,23.19
2023-02-15T16:15:49.897Z,23.12
2023-02-15T16:16:49.882Z,23.01
2023-02-15T16:17:49.866Z,23.12
2023-02-15T16:18:49.856Z,23.06
2023-02-15T16:19:49.850Z,22.94
2023-02-15T16:20:49.849Z,22.97
2023-02-15T16:21:49.867Z,23.01
2023-02-15T16:22:49.864Z,22.86
2023-02-15T16:23:49.836Z,22.82
2023-02-15T16:24:49.856Z,22.78
2023-02-15T16:25:49.831Z,22.85
2023-02-15T16:26:49.859Z,22.79
2023-02-15T16:27:49.822Z,22.66
2023-02-15T16:28:49.843Z,22.69
2023-02-15T16:29:49.815Z,22.73
2023-02-15T16:30:49.893Z,22.66
2023-02-15T16:31:49.951Z,22.63
2023-02-15T16:32:49.849Z,22.63
2023-02-15T16:33:49.806Z,22.59
2023-02-15T16:34:49.796Z,22.46
2023-02-15T16:35:49.797Z,22.45
2023-02-15T16:36:49.807Z,22.49
2023-02-15T16:37:49.809Z,22.48
2023-02-15T16:38:49.786Z,22.46
2023-02-15T16:39:49.788Z,22.42
2023-02-15T16:40:51.114Z,22.44
2023-02-15T16:41:49.798Z,22.44
2023-02-15T16:42:49.792Z,22.41
2023-02-15T16:43:49.808Z,22.38
2023-02-15T16:44:49.797Z,22.34
2023-02-15T16:45:49.794Z,22.34
2023-02-15T16:46:49.790Z,22.33
2023-02-15T16:47:49.773Z,22.26
2023-02-15T16:48:49.776Z,22.29
2023-02-15T16:49:49.761Z,22.26
2023-02-15T16:50:49.744Z,22.23
2023-02-15T16:51:49.749Z,22.24
2023-02-15T16:52:49.752Z,22.24
2023-02-15T16:53:49.775Z,22.15
2023-02-15T16:54:49.745Z,22.20
2023-02-15T16:55:49.748Z,22.23
2023-02-15T16:56:49.729Z,22.11
2023-02-15T16:57:49.748Z,22.12
2023-02-15T16:58:49.743Z,22.09
2023-02-15T16:59:49.719Z,22.09
2023-02-15T17:00:49.831Z,22.09
2023-02-15T17:01:49.722Z,22.11
2023-02-15T17:02:56.490Z,22.08
2023-02-15T17:03:49.768Z,22.04
2023-02-15T17:04:49.724Z,22.05
2023-02-15T17:05:49.693Z,22.05
2023-02-15T17:06:49.693Z,21.92
2023-02-15T17:07:49.698Z,22.02
2023-02-15T17:08:49.706Z,21.96
2023-02-15T17:09:49.685Z,21.92
2023-02-15T17:10:49.684Z,21.96
2023-02-15T17:11:49.674Z,21.96
2023-02-15T17:12:49.689Z,21.96
2023-02-15T17:13:49.685Z,21.92
2023-02-15T17:14:49.664Z,21.94
2023-02-15T17:15:49.746Z,21.94
2023-02-15T17:16:49.704Z,21.89
2023-02-15T17:17:49.658Z,21.89
2023-02-15T17:18:49.669Z,21.83
2023-02-15T17:19:49.645Z,21.83
2023-02-15T17:20:49.654Z,21.78
2023-02-15T17:21:49.642Z,21.89
2023-02-15T17:22:49.636Z,21.85
2023-02-15T17:23:49.655Z,21.83
2023-02-15T17:24:49.643Z,21.82
2023-02-15T17:25:49.660Z,21.82
2023-02-15T17:26:49.620Z,21.71
2023-02-15T17:27:49.620Z,21.78
2023-02-15T17:28:49.659Z,21.73
2023-02-15T17:29:49.611Z,21.78
2023-02-15T17:30:49.616Z,21.76
2023-02-15T17:31:49.780Z,21.82
2023-02-15T17:32:49.823Z,21.74
2023-02-15T17:33:49.606Z,21.80
2023-02-15T17:34:49.612Z,21.71
2023-02-15T17:35:49.604Z,21.71
2023-02-15T17:36:49.618Z,21.73
2023-02-15T17:37:49.598Z,21.73
2023-02-15T17:38:49.591Z,21.76
2023-02-15T17:39:49.585Z,21.68